createdAt,value
2019-02-25T00:01:27.661Z,77.33
2019-02-25T00:03:58.240Z,73.30
2019-02-25T00:06:29.269Z,64.27
2019-02-25T00:09:02.025Z,71.17
2019-02-25T00:11:33.541Z,66.60
2019-02-25T00:14:03.633Z,78.50
2019-02-25T00:16:33.498Z,68.53
2019-02-25T00:19:04.959Z,71.43
2019-02-25T00:21:35.085Z,70.13
2019-02-25T00:24:05.785Z,67.03
2019-02-25T00:26:36.080Z,72.57
2019-02-25T00:29:06.680Z,66.00
2019-02-25T00:31:36.947Z,66.30
2019-02-25T00:34:07.332Z,60.50
2019-02-25T00:36:37.519Z,56.47
2019-02-25T00:39:08.909Z,65.60
2019-02-25T00:41:38.835Z,66.37
2019-02-25T00:44:09.092Z,64.10
2019-02-25T00:46:39.104Z,64.13
2019-02-25T00:49:10.619Z,63.80
2019-02-25T00:51:40.723Z,58.30
2019-02-25T00:54:11.010Z,62.07
2019-02-25T00:56:41.139Z,62.13
2019-02-25T00:59:11.255Z,66.07
2019-02-25T01:01:41.567Z,59.67
2019-02-25T01:04:11.918Z,51.40
2019-02-25T01:06:43.059Z,55.40
2019-02-25T01:09:13.179Z,58.67
2019-02-25T01:11:43.273Z,64.03
2019-02-25T01:14:13.453Z,52.87
2019-02-25T01:16:43.557Z,53.50
2019-02-25T01:19:13.342Z,60.00
2019-02-25T01:21:43.300Z,59.23
2019-02-25T01:24:13.349Z,54.07
2019-02-25T01:26:43.470Z,57.83
2019-02-25T01:29:13.609Z,56.27
2019-02-25T01:31:43.805Z,56.00
2019-02-25T01:34:14.366Z,59.03
2019-02-25T01:36:44.531Z,51.07
2019-02-25T01:39:14.703Z,47.33
2019-02-25T01:41:44.917Z,60.03
2019-02-25T01:44:15.012Z,59.33
2019-02-25T01:46:45.119Z,50.77
2019-02-25T01:49:15.354Z,52.50
2019-02-25T01:51:45.258Z,56.50
2019-02-25T01:54:15.863Z,49.27
2019-02-25T01:56:45.516Z,51.67
2019-02-25T01:59:15.681Z,48.63
2019-02-25T02:01:45.849Z,52.40
2019-02-25T02:04:15.961Z,54.43
2019-02-25T02:06:46.002Z,53.23
2019-02-25T02:09:16.293Z,56.50
2019-02-25T02:11:46.394Z,47.10
2019-02-25T02:14:16.549Z,51.97
2019-02-25T02:16:46.510Z,54.10
2019-02-25T02:19:16.749Z,53.93
2019-02-25T02:21:47.012Z,48.30
2019-02-25T02:24:16.987Z,56.00
2019-02-25T02:26:46.989Z,55.53
2019-02-25T02:29:17.367Z,49.17
2019-02-25T02:31:47.419Z,56.20
2019-02-25T02:34:17.526Z,47.30
2019-02-25T02:36:47.605Z,55.37
2019-02-25T02:39:17.570Z,48.87
2019-02-25T02:42:13.131Z,54.37
2019-02-25T02:44:45.163Z,50.63
2019-02-25T02:47:24.389Z,49.83
2019-02-25T02:49:54.494Z,49.00
2019-02-25T02:52:24.624Z,46.57
2019-02-25T02:54:54.769Z,46.20
2019-02-25T02:57:25.792Z,50.40
2019-02-25T02:59:55.932Z,47.47
2019-02-25T03:02:25.585Z,60.27
2019-02-25T03:04:57.466Z,49.73
2019-02-25T03:07:27.702Z,54.57
2019-02-25T03:09:58.883Z,48.23
2019-02-25T03:12:29.294Z,50.70
2019-02-25T03:15:00.412Z,48.73
2019-02-25T03:17:30.266Z,47.53
2019-02-25T03:20:00.450Z,48.07
2019-02-25T03:22:30.590Z,47.23
2019-02-25T03:25:00.794Z,46.83
2019-02-25T03:27:30.990Z,48.40
2019-02-25T03:30:00.960Z,44.60
2019-02-25T03:32:31.364Z,46.07
2019-02-25T03:35:01.441Z,49.03
2019-02-25T03:37:31.424Z,46.93
2019-02-25T03:40:01.685Z,43.37
2019-02-25T03:42:31.632Z,43.80
2019-02-25T03:45:01.634Z,49.27
2019-02-25T03:47:33.094Z,47.43
2019-02-25T03:50:03.151Z,44.20
2019-02-25T03:52:33.330Z,52.87
2019-02-25T03:55:03.801Z,48.93
2019-02-25T03:57:36.093Z,43.87
2019-02-25T04:00:14.334Z,48.07
2019-02-25T04:02:44.542Z,51.47
2019-02-25T04:05:15.723Z,52.13
2019-02-25T04:07:47.282Z,44.30
2019-02-25T04:10:18.931Z,53.93
2019-02-25T04:12:49.204Z,46.83
2019-02-25T04:15:21.887Z,49.50
2019-02-25T04:17:52.069Z,49.67
2019-02-25T04:20:22.438Z,50.63
2019-02-25T04:22:53.621Z,42.27
2019-02-25T04:25:23.665Z,43.00
2019-02-25T04:27:53.971Z,45.70
2019-02-25T04:30:24.229Z,43.23
2019-02-25T04:32:55.684Z,45.77
2019-02-25T04:35:25.798Z,44.03
2019-02-25T04:37:55.945Z,48.63
2019-02-25T04:40:25.904Z,41.67
2019-02-25T04:42:57.116Z,48.80
2019-02-25T04:45:27.181Z,46.33
2019-02-25T04:47:57.181Z,47.53
2019-02-25T04:50:27.248Z,42.40
2019-02-25T04:52:57.459Z,46.73
2019-02-25T04:55:27.674Z,45.97
2019-02-25T04:57:58.740Z,46.30
2019-02-25T05:00:28.850Z,45.00
2019-02-25T05:02:59.162Z,48.13
2019-02-25T05:05:29.287Z,48.30
2019-02-25T05:07:59.308Z,45.97
2019-02-25T05:10:29.421Z,49.87
2019-02-25T05:13:01.077Z,48.33
2019-02-25T05:15:32.432Z,43.50
2019-02-25T05:18:03.300Z,52.30
2019-02-25T05:20:33.381Z,50.37
2019-02-25T05:23:03.626Z,47.33
2019-02-25T05:25:33.948Z,46.97
2019-02-25T05:28:04.319Z,51.53
2019-02-25T05:30:34.478Z,49.07
2019-02-25T05:33:04.671Z,40.97
2019-02-25T05:35:34.860Z,45.50
2019-02-25T05:38:06.114Z,48.73
2019-02-25T05:40:36.099Z,56.13
2019-02-25T05:43:06.240Z,49.53
2019-02-25T05:45:36.316Z,48.77
2019-02-25T05:48:06.574Z,54.03
2019-02-25T05:50:36.687Z,53.10
2019-02-25T05:53:06.809Z,50.07
2019-02-25T05:55:37.129Z,55.83
2019-02-25T05:58:07.362Z,61.08
2019-02-25T06:00:37.494Z,59.13
2019-02-25T06:03:07.288Z,69.60
2019-02-25T06:05:37.221Z,69.77
2019-02-25T06:08:07.420Z,65.87
2019-02-25T06:10:37.503Z,64.23
2019-02-25T06:13:07.755Z,70.03
2019-02-25T06:15:37.993Z,75.87
2019-02-25T06:18:08.112Z,77.63
2019-02-25T06:20:38.232Z,61.57
2019-02-25T06:23:08.434Z,54.43
2019-02-25T06:25:38.456Z,55.50
2019-02-25T06:28:08.679Z,53.90
2019-02-25T06:30:38.784Z,67.10
2019-02-25T06:33:08.973Z,59.67
2019-02-25T06:35:39.223Z,53.27
2019-02-25T06:38:09.404Z,67.80
2019-02-25T06:40:39.403Z,69.13
2019-02-25T06:43:09.694Z,73.17
2019-02-25T06:45:39.700Z,67.73
2019-02-25T06:48:09.817Z,58.60
2019-02-25T06:50:39.798Z,71.57
2019-02-25T06:53:11.087Z,67.87
2019-02-25T06:55:41.315Z,64.40
2019-02-25T06:58:11.632Z,48.60
2019-02-25T07:00:42.660Z,49.70
2019-02-25T07:03:14.111Z,48.03
2019-02-25T07:05:46.499Z,42.63
2019-02-25T07:08:24.638Z,49.77
2019-02-25T07:10:57.577Z,52.37
2019-02-25T07:13:31.487Z,45.63
2019-02-25T07:16:06.037Z,48.73
2019-02-25T07:18:40.539Z,52.70
2019-02-25T07:21:18.323Z,50.43
2019-02-25T07:24:07.942Z,48.87
2019-02-25T07:26:39.509Z,48.43
2019-02-25T07:29:17.244Z,46.17
2019-02-25T07:32:07.136Z,55.70
2019-02-25T07:34:38.886Z,58.03
2019-02-25T07:37:16.096Z,54.97
2019-02-25T07:40:03.009Z,54.57
2019-02-25T07:42:37.615Z,66.93
2019-02-25T07:45:13.083Z,74.10
2019-02-25T07:47:45.127Z,100.10
2019-02-25T07:50:19.845Z,88.10
2019-02-25T07:53:08.891Z,77.47
2019-02-25T07:55:40.267Z,63.67
2019-02-25T07:58:12.102Z,50.27
2019-02-25T08:00:43.849Z,60.47
2019-02-25T08:03:27.589Z,55.33
2019-02-25T08:05:59.346Z,52.90
2019-02-25T08:08:31.110Z,56.50
2019-02-25T08:11:05.723Z,54.50
2019-02-25T08:13:46.820Z,58.63
2019-02-25T08:16:21.538Z,67.37
2019-02-25T08:18:54.195Z,59.63
2019-02-25T08:21:31.950Z,56.53
2019-02-25T08:24:09.902Z,60.20
2019-02-25T08:26:58.148Z,54.50
2019-02-25T08:29:33.901Z,57.83
2019-02-25T08:32:05.758Z,56.53
2019-02-25T08:34:40.176Z,62.80
2019-02-25T08:37:26.477Z,56.67
2019-02-25T08:40:13.395Z,51.23
2019-02-25T08:42:43.931Z,62.83
2019-02-25T08:45:27.496Z,55.17
2019-02-25T08:48:02.796Z,52.00
2019-02-25T08:50:32.656Z,56.33
2019-02-25T08:53:02.771Z,57.77
2019-02-25T08:55:33.062Z,54.50
2019-02-25T08:58:03.550Z,62.93
2019-02-25T09:00:33.884Z,56.83
2019-02-25T09:03:04.106Z,68.57
2019-02-25T09:05:35.573Z,61.63
2019-02-25T09:08:05.691Z,64.83
2019-02-25T09:10:35.799Z,58.23
2019-02-25T09:13:06.242Z,60.57
2019-02-25T09:15:36.575Z,55.23
2019-02-25T09:18:05.307Z,61.97
2019-02-25T09:20:35.476Z,64.03
2019-02-25T09:23:05.495Z,59.13
2019-02-25T09:25:37.116Z,54.20
2019-02-25T09:28:07.105Z,59.17
2019-02-25T09:30:37.391Z,58.30
2019-02-25T09:33:07.381Z,63.33
2019-02-25T09:35:37.723Z,57.90
2019-02-25T09:38:08.005Z,60.97
2019-02-25T09:40:38.416Z,57.70
2019-02-25T09:43:08.239Z,56.43
2019-02-25T09:45:39.417Z,58.83
2019-02-25T09:48:09.615Z,60.40
2019-02-25T09:50:39.602Z,51.23
2019-02-25T09:53:09.659Z,52.90
2019-02-25T09:55:39.705Z,60.53
2019-02-25T09:58:09.777Z,52.50
2019-02-25T10:00:40.346Z,50.63
2019-02-25T10:03:10.968Z,55.50
2019-02-25T10:05:41.685Z,56.37
2019-02-25T10:08:12.001Z,54.70
2019-02-25T10:10:42.102Z,50.70
2019-02-25T10:13:12.240Z,45.53
2019-02-25T10:15:42.323Z,48.10
2019-02-25T10:18:12.452Z,50.03
2019-02-25T10:20:42.789Z,42.57
2019-02-25T10:23:13.131Z,45.43
2019-02-25T10:25:43.349Z,50.60
2019-02-25T10:28:13.265Z,49.10
2019-02-25T10:30:52.404Z,51.93
2019-02-25T10:33:15.365Z,51.00
2019-02-25T10:35:45.502Z,47.73
2019-02-25T10:38:16.475Z,47.00
2019-02-25T10:40:47.513Z,49.50
2019-02-25T10:43:18.562Z,51.23
2019-02-25T10:45:48.679Z,48.20
2019-02-25T10:48:19.828Z,47.13
2019-02-25T10:50:55.945Z,42.67
2019-02-25T10:53:22.196Z,44.80
2019-02-25T10:56:01.434Z,45.77
2019-02-25T10:58:33.519Z,46.37
2019-02-25T11:01:03.714Z,47.50
2019-02-25T11:03:33.767Z,47.13
2019-02-25T11:06:03.925Z,47.00
2019-02-25T11:08:35.267Z,53.03
2019-02-25T11:11:07.237Z,40.33
2019-02-25T11:13:38.290Z,59.57
2019-02-25T11:16:09.858Z,47.40
2019-02-25T11:18:40.709Z,43.00
2019-02-25T11:21:10.896Z,40.20
2019-02-25T11:23:42.897Z,46.93
2019-02-25T11:26:12.942Z,47.17
2019-02-25T11:28:43.780Z,47.93
2019-02-25T11:31:15.472Z,52.60
2019-02-25T11:33:45.883Z,43.70
2019-02-25T11:36:17.250Z,45.90
2019-02-25T11:38:47.345Z,43.50
2019-02-25T11:41:17.485Z,44.00
2019-02-25T11:43:48.685Z,38.53
2019-02-25T11:46:19.550Z,47.73
2019-02-25T11:48:50.651Z,43.67
2019-02-25T11:51:21.115Z,44.60
2019-02-25T11:53:51.281Z,42.70
2019-02-25T11:56:21.420Z,51.70
2019-02-25T11:58:51.568Z,43.83
2019-02-25T12:01:21.707Z,41.50
2019-02-25T12:03:53.462Z,39.03
2019-02-25T12:06:23.619Z,42.53
2019-02-25T12:08:53.623Z,37.53
2019-02-25T12:11:23.839Z,48.50
2019-02-25T12:13:53.936Z,44.47
2019-02-25T12:16:24.461Z,38.63
2019-02-25T12:18:54.649Z,43.50
2019-02-25T12:21:25.021Z,48.23
2019-02-25T12:23:55.116Z,36.00
2019-02-25T12:26:25.297Z,41.63
2019-02-25T12:28:55.555Z,44.83
2019-02-25T12:31:25.791Z,45.03
2019-02-25T12:33:56.950Z,44.07
2019-02-25T12:36:27.158Z,48.63
2019-02-25T12:38:57.259Z,47.77
2019-02-25T12:41:27.894Z,41.23
2019-02-25T12:43:58.319Z,45.80
2019-02-25T12:46:28.381Z,46.90
2019-02-25T12:48:58.636Z,47.30
2019-02-25T12:51:28.751Z,51.67
2019-02-25T12:53:58.696Z,46.93
2019-02-25T12:56:28.799Z,52.60
2019-02-25T12:58:58.922Z,46.43
2019-02-25T13:01:29.134Z,56.77
2019-02-25T13:03:59.143Z,59.33
2019-02-25T13:06:29.391Z,55.13
2019-02-25T13:09:00.414Z,56.80
2019-02-25T13:11:32.087Z,55.80
2019-02-25T13:14:02.118Z,61.20
2019-02-25T13:16:33.762Z,63.63
2019-02-25T13:19:03.911Z,61.60
2019-02-25T13:21:33.977Z,62.27
2019-02-25T13:24:04.609Z,66.97
2019-02-25T13:26:36.589Z,64.20
2019-02-25T13:29:07.277Z,65.17
2019-02-25T13:31:37.387Z,71.87
2019-02-25T13:34:07.647Z,70.27
2019-02-25T13:36:38.503Z,67.13
2019-02-25T13:39:08.873Z,67.93
2019-02-25T13:41:40.053Z,68.57
2019-02-25T13:44:10.687Z,71.17
2019-02-25T13:46:41.241Z,71.50
2019-02-25T13:49:11.405Z,70.70
2019-02-25T13:51:41.634Z,75.10
2019-02-25T13:54:11.762Z,80.97
2019-02-25T13:56:41.991Z,84.97
2019-02-25T13:59:12.581Z,81.93
2019-02-25T14:01:42.652Z,86.60
2019-02-25T14:04:12.850Z,80.03
2019-02-25T14:06:43.629Z,79.97
2019-02-25T14:09:14.227Z,77.90
2019-02-25T14:11:45.961Z,74.03
2019-02-25T14:14:16.227Z,78.13
2019-02-25T14:16:46.375Z,81.27
2019-02-25T14:19:16.738Z,75.10
2019-02-25T14:21:47.046Z,88.53
2019-02-25T14:24:18.417Z,84.93
2019-02-25T14:26:49.084Z,85.13
2019-02-25T14:29:19.360Z,83.13
2019-02-25T14:31:51.059Z,90.80
2019-02-25T14:34:21.425Z,95.27
2019-02-25T14:36:52.471Z,93.37
2019-02-25T14:39:27.779Z,98.93
2019-02-25T14:41:59.151Z,92.50
2019-02-25T14:44:32.302Z,98.50
2019-02-25T14:47:01.119Z,96.27
2019-02-25T14:49:32.660Z,89.07
2019-02-25T14:52:03.827Z,91.20
2019-02-25T14:54:35.254Z,90.43
2019-02-25T14:57:08.243Z,89.37
2019-02-25T14:59:38.473Z,99.63
2019-02-25T15:02:09.295Z,108.03
2019-02-25T15:04:41.798Z,107.67
2019-02-25T15:07:13.512Z,94.40
2019-02-25T15:09:45.588Z,100.13
2019-02-25T15:12:15.881Z,100.87
2019-02-25T15:14:46.125Z,93.43
2019-02-25T15:17:16.282Z,88.97
2019-02-25T15:19:46.687Z,91.73
2019-02-25T15:22:18.091Z,87.07
2019-02-25T15:24:50.245Z,93.40
2019-02-25T15:27:20.348Z,83.37
2019-02-25T15:29:50.732Z,97.30
2019-02-25T15:32:21.225Z,95.83
2019-02-25T15:34:52.793Z,94.73
2019-02-25T15:37:23.469Z,79.90
2019-02-25T15:39:55.918Z,86.70
2019-02-25T15:42:26.061Z,86.67
2019-02-25T15:44:57.578Z,88.93
2019-02-25T15:47:27.924Z,92.63
2019-02-25T15:50:01.694Z,93.10
2019-02-25T15:52:30.852Z,86.33
2019-02-25T15:55:01.925Z,89.13
2019-02-25T15:57:35.384Z,82.47
2019-02-25T16:00:12.837Z,101.80
2019-02-25T16:02:42.943Z,94.97
2019-02-25T16:05:13.396Z,100.73
2019-02-25T16:07:43.881Z,113.77
2019-02-25T16:10:16.265Z,130.03
2019-02-25T16:12:48.712Z,114.00
2019-02-25T16:15:20.999Z,121.60
2019-02-25T16:17:51.797Z,140.80
2019-02-25T16:20:23.109Z,136.33
2019-02-25T16:22:56.308Z,132.33
2019-02-25T16:25:27.574Z,138.10
2019-02-25T16:27:59.142Z,132.20
2019-02-25T16:30:30.760Z,131.33
2019-02-25T16:33:04.338Z,127.03
2019-02-25T16:35:34.338Z,123.07
2019-02-25T16:38:05.699Z,121.87
2019-02-25T16:40:38.349Z,129.93
2019-02-25T16:43:12.111Z,127.13
2019-02-25T16:45:43.943Z,114.80
2019-02-25T16:48:12.690Z,132.63
2019-02-25T16:50:44.589Z,129.67
2019-02-25T16:53:15.474Z,129.47
2019-02-25T16:55:47.384Z,140.67
2019-02-25T16:58:19.872Z,136.93
2019-02-25T17:00:50.386Z,129.57
2019-02-25T17:03:21.304Z,136.77
2019-02-25T17:05:52.015Z,120.60
2019-02-25T17:08:23.993Z,130.13
2019-02-25T17:10:56.062Z,127.60
2019-02-25T17:13:26.382Z,130.37
2019-02-25T17:15:56.503Z,121.00
2019-02-25T17:18:26.571Z,118.43
2019-02-25T17:20:56.466Z,120.67
2019-02-25T17:23:27.646Z,124.20
2019-02-25T17:25:58.755Z,117.47
2019-02-25T17:28:29.185Z,114.17
2019-02-25T17:30:59.334Z,112.17
2019-02-25T17:33:32.194Z,122.73
2019-02-25T17:36:02.222Z,117.27
2019-02-25T17:38:32.612Z,113.17
2019-02-25T17:41:04.636Z,105.17
2019-02-25T17:43:36.460Z,117.97
2019-02-25T17:46:07.438Z,109.77
2019-02-25T17:48:38.810Z,112.80
2019-02-25T17:51:09.230Z,104.67
2019-02-25T17:53:39.177Z,102.77
2019-02-25T17:56:10.425Z,122.77
2019-02-25T17:58:42.387Z,107.70
2019-02-25T18:01:12.654Z,101.63
2019-02-25T18:03:43.925Z,99.87
2019-02-25T18:06:14.494Z,107.10
2019-02-25T18:08:44.580Z,111.93
2019-02-25T18:11:17.942Z,122.70
2019-02-25T18:13:48.927Z,104.30
2019-02-25T18:16:19.802Z,110.03
2019-02-25T18:18:51.981Z,114.00
2019-02-25T18:21:21.917Z,114.83
2019-02-25T18:23:52.506Z,115.27
2019-02-25T18:26:22.945Z,107.67
2019-02-25T18:28:53.378Z,124.60
2019-02-25T18:31:23.843Z,116.90
2019-02-25T18:33:53.878Z,106.87
2019-02-25T18:36:25.959Z,121.30
2019-02-25T18:38:55.633Z,118.50
2019-02-25T18:41:27.418Z,116.57
2019-02-25T18:43:57.374Z,125.73
2019-02-25T18:46:28.183Z,123.37
2019-02-25T18:49:00.833Z,133.50
2019-02-25T18:51:32.844Z,137.00
2019-02-25T18:54:03.724Z,140.83
2019-02-25T18:56:35.470Z,182.35
2019-02-25T18:59:10.904Z,145.00
2019-02-25T19:01:37.235Z,140.10
2019-02-25T19:04:07.499Z,138.47
2019-02-25T19:06:39.291Z,147.23
2019-02-25T19:09:14.231Z,140.53
2019-02-25T19:11:45.039Z,150.30
2019-02-25T19:14:17.837Z,153.33
2019-02-25T19:16:47.227Z,142.10
2019-02-25T19:19:19.228Z,170.90
2019-02-25T19:21:50.031Z,158.37
2019-02-25T19:24:21.427Z,151.63
2019-02-25T19:26:51.656Z,174.90
2019-02-25T19:29:23.805Z,195.07
2019-02-25T19:31:53.887Z,235.13
2019-02-25T19:34:24.276Z,192.40
2019-02-25T19:36:57.984Z,169.20
2019-02-25T19:39:26.584Z,177.63
2019-02-25T19:41:58.352Z,184.17
2019-02-25T19:44:29.818Z,195.43
2019-02-25T19:47:00.821Z,190.97
2019-02-25T19:49:31.090Z,175.67
2019-02-25T19:52:00.996Z,155.33
2019-02-25T19:54:34.167Z,156.37
2019-02-25T19:57:04.234Z,174.00
2019-02-25T19:59:34.239Z,210.83
2019-02-25T20:02:04.351Z,164.00
2019-02-25T20:04:35.915Z,188.23
2019-02-25T20:07:06.587Z,155.27
2019-02-25T20:09:40.326Z,148.10
2019-02-25T20:12:08.620Z,133.70
2019-02-25T20:14:38.706Z,147.50
2019-02-25T20:17:08.639Z,154.53
2019-02-25T20:19:39.206Z,142.07
2019-02-25T20:22:12.099Z,158.93
2019-02-25T20:24:45.851Z,163.63
2019-02-25T20:27:14.121Z,159.60
2019-02-25T20:29:44.605Z,166.17
2019-02-25T20:32:16.514Z,157.87
2019-02-25T20:34:49.912Z,150.73
2019-02-25T20:37:22.752Z,167.23
2019-02-25T20:39:51.036Z,169.83
2019-02-25T20:42:22.282Z,166.30
2019-02-25T20:44:55.094Z,151.80
2019-02-25T20:47:24.748Z,157.50
2019-02-25T20:49:56.065Z,154.97
2019-02-25T20:52:27.072Z,166.63
2019-02-25T20:54:57.557Z,170.07
2019-02-25T20:57:29.515Z,166.37
2019-02-25T20:59:59.572Z,163.67
2019-02-25T21:02:33.844Z,161.00
2019-02-25T21:05:07.759Z,162.43
2019-02-25T21:07:39.231Z,178.00
2019-02-25T21:10:22.801Z,158.13
2019-02-25T21:12:54.826Z,161.33
2019-02-25T21:15:25.867Z,181.83
2019-02-25T21:17:58.958Z,174.27
2019-02-25T21:20:28.857Z,162.40
2019-02-25T21:23:05.005Z,166.20
2019-02-25T21:25:34.295Z,171.50
2019-02-25T21:28:08.829Z,166.40
2019-02-25T21:30:41.802Z,162.93
2019-02-25T21:33:15.313Z,157.10
2019-02-25T21:35:46.174Z,175.90
2019-02-25T21:38:19.538Z,167.03
2019-02-25T21:40:50.595Z,154.07
2019-02-25T21:43:25.716Z,147.47
2019-02-25T21:45:56.460Z,150.23
2019-02-25T21:48:27.518Z,155.50
2019-02-25T21:51:02.226Z,148.53
2019-02-25T21:53:31.282Z,151.00
2019-02-25T21:56:04.946Z,143.23
2019-02-25T21:58:35.682Z,147.27
2019-02-25T22:01:06.010Z,176.50
2019-02-25T22:03:39.343Z,161.30
2019-02-25T22:06:08.126Z,154.50
2019-02-25T22:08:38.020Z,155.73
2019-02-25T22:11:14.777Z,164.33
2019-02-25T22:13:40.255Z,145.37
2019-02-25T22:16:10.243Z,164.00
2019-02-25T22:18:40.278Z,161.47
2019-02-25T22:21:12.225Z,158.33
2019-02-25T22:23:42.047Z,153.17
2019-02-25T22:26:13.274Z,164.37
2019-02-25T22:28:43.212Z,157.10
2019-02-25T22:31:13.982Z,151.17
2019-02-25T22:33:45.082Z,154.77
2019-02-25T22:36:15.228Z,153.90
2019-02-25T22:38:45.518Z,140.93
2019-02-25T22:41:16.749Z,141.73
2019-02-25T22:43:48.253Z,140.77
2019-02-25T22:46:18.499Z,148.47
2019-02-25T22:48:48.561Z,144.37
2019-02-25T22:51:19.509Z,146.37
2019-02-25T22:53:50.124Z,150.47
2019-02-25T22:56:21.484Z,164.17
2019-02-25T22:58:51.760Z,154.17
2019-02-25T23:01:22.112Z,145.80
2019-02-25T23:03:55.032Z,151.73
2019-02-25T23:06:25.351Z,148.47
2019-02-25T23:08:56.768Z,147.50
2019-02-25T23:11:26.885Z,136.80
2019-02-25T23:13:56.909Z,149.47
2019-02-25T23:16:26.905Z,134.20
2019-02-25T23:18:56.841Z,138.20
2019-02-25T23:21:28.722Z,137.13
2019-02-25T23:24:00.483Z,141.70
2019-02-25T23:26:31.479Z,137.43
2019-02-25T23:29:01.418Z,139.83
2019-02-25T23:31:33.060Z,125.47
2019-02-25T23:34:05.561Z,135.00
2019-02-25T23:36:34.666Z,140.23
2019-02-25T23:39:06.579Z,128.87
2019-02-25T23:41:38.990Z,143.10
2019-02-25T23:44:08.979Z,138.80
2019-02-25T23:46:40.313Z,138.43
2019-02-25T23:49:11.382Z,142.73
2019-02-25T23:51:42.029Z,136.77
2019-02-25T23:54:16.006Z,130.23
2019-02-25T23:56:47.657Z,120.87
2019-02-25T23:59:17.104Z,130.17
